createdAt,value
2018-07-23T00:03:50.447Z,16.86
2018-07-23T00:09:56.003Z,16.88
2018-07-23T00:16:01.569Z,16.84
2018-07-23T00:22:07.236Z,16.69
2018-07-23T00:28:12.831Z,16.63
2018-07-23T00:34:18.413Z,16.65
2018-07-23T00:40:23.689Z,16.89
2018-07-23T00:46:29.151Z,16.62
2018-07-23T00:52:35.147Z,16.78
2018-07-23T00:58:40.748Z,16.44
2018-07-23T01:04:46.310Z,16.43
2018-07-23T01:10:51.885Z,16.77
2018-07-23T01:16:57.458Z,16.78
2018-07-23T01:23:03.013Z,16.99
2018-07-23T01:29:08.583Z,16.98
2018-07-23T01:35:14.124Z,16.91
2018-07-23T01:41:19.725Z,16.88
2018-07-23T01:47:25.301Z,16.84
2018-07-23T01:53:30.893Z,17.14
2018-07-23T01:59:36.515Z,16.96
2018-07-23T02:05:42.131Z,17.13
2018-07-23T02:11:47.734Z,17.19
2018-07-23T02:17:53.301Z,17.21
2018-07-23T02:23:58.895Z,17.23
2018-07-23T02:30:04.883Z,17.52
2018-07-23T02:36:10.455Z,17.43
2018-07-23T02:42:16.205Z,17.36
2018-07-23T02:48:21.819Z,17.50
2018-07-23T02:54:27.428Z,17.41
2018-07-23T03:00:33.032Z,17.27
2018-07-23T03:06:38.607Z,17.37
2018-07-23T03:12:44.160Z,17.34
2018-07-23T03:18:50.173Z,17.36
2018-07-23T03:24:55.853Z,17.23
2018-07-23T03:31:01.480Z,17.19
2018-07-23T03:37:07.041Z,17.38
2018-07-23T03:43:12.689Z,17.32
2018-07-23T03:49:18.267Z,17.39
2018-07-23T03:55:23.823Z,17.36
2018-07-23T04:01:29.411Z,17.52
2018-07-23T04:07:34.989Z,17.58
2018-07-23T04:13:40.266Z,17.44
2018-07-23T04:19:45.712Z,17.49
2018-07-23T04:25:51.307Z,17.64
2018-07-23T04:32:04.995Z,17.67
2018-07-23T04:38:11.184Z,17.58
2018-07-23T04:44:16.771Z,17.61
2018-07-23T04:50:22.367Z,17.75
2018-07-23T04:56:27.957Z,17.68
2018-07-23T05:02:33.532Z,17.81
2018-07-23T05:08:39.150Z,18.06
2018-07-23T05:14:44.719Z,18.13
2018-07-23T05:20:50.297Z,18.40
2018-07-23T05:26:55.893Z,18.38
2018-07-23T05:33:01.479Z,18.53
2018-07-23T05:39:10.317Z,18.54
2018-07-23T05:45:15.931Z,18.65
2018-07-23T05:51:21.493Z,19.04
2018-07-23T05:57:27.104Z,19.02
2018-07-23T06:03:32.731Z,19.06
2018-07-23T06:09:38.293Z,18.67
2018-07-23T06:15:43.864Z,18.46
2018-07-23T06:21:49.457Z,18.51
2018-07-23T06:27:55.258Z,18.75
2018-07-23T06:34:00.857Z,18.79
2018-07-23T06:40:08.438Z,18.95
2018-07-23T06:46:14.026Z,19.01
2018-07-23T06:52:19.621Z,18.91
2018-07-23T06:58:25.221Z,19.07
2018-07-23T07:04:30.779Z,19.37
2018-07-23T07:10:36.357Z,19.23
2018-07-23T07:16:41.951Z,19.60
2018-07-23T07:22:47.538Z,19.85
2018-07-23T07:28:53.144Z,19.73
2018-07-23T07:34:58.767Z,19.80
2018-07-23T07:41:04.397Z,19.93
2018-07-23T07:47:10.044Z,19.76
2018-07-23T07:53:15.610Z,20.02
2018-07-23T07:59:21.181Z,21.07
2018-07-23T08:05:26.761Z,21.88
2018-07-23T08:11:32.349Z,22.09
2018-07-23T08:17:37.941Z,22.55
2018-07-23T08:23:43.510Z,22.79
2018-07-23T08:29:49.182Z,23.59
2018-07-23T08:35:55.078Z,23.91
2018-07-23T08:42:01.665Z,24.39
2018-07-23T08:48:07.615Z,25.22
2018-07-23T08:54:13.550Z,25.32
2018-07-23T09:00:18.981Z,25.92
2018-07-23T09:06:25.133Z,25.66
2018-07-23T09:12:30.989Z,25.99
2018-07-23T09:18:36.889Z,26.42
2018-07-23T09:24:43.200Z,26.70
2018-07-23T09:30:51.551Z,26.85
2018-07-23T09:36:57.350Z,27.12
2018-07-23T09:43:04.053Z,27.40
2018-07-23T09:49:10.001Z,27.71
2018-07-23T09:55:16.010Z,28.40
2018-07-23T10:01:21.969Z,28.45
2018-07-23T10:07:27.935Z,28.96
2018-07-23T10:13:33.967Z,29.22
2018-07-23T10:19:40.452Z,30.19
2018-07-23T10:25:46.473Z,29.78
2018-07-23T10:31:52.557Z,29.76
2018-07-23T10:37:58.587Z,30.02
2018-07-23T10:44:04.591Z,30.36
2018-07-23T10:50:10.633Z,31.00
2018-07-23T10:56:16.569Z,30.44
2018-07-23T11:02:22.489Z,30.84
2018-07-23T11:08:28.419Z,30.49
2018-07-23T11:14:34.328Z,31.32
2018-07-23T11:20:40.298Z,31.62
2018-07-23T11:26:46.367Z,32.09
2018-07-23T11:32:52.867Z,33.24
2018-07-23T11:38:58.855Z,34.21
2018-07-23T11:45:04.904Z,34.58
2018-07-23T11:51:10.937Z,33.73
2018-07-23T11:57:16.868Z,32.99
2018-07-23T12:03:22.878Z,33.54
2018-07-23T12:09:28.803Z,33.77
2018-07-23T12:15:34.745Z,33.84
2018-07-23T12:21:40.813Z,33.23
2018-07-23T12:27:46.420Z,34.11
2018-07-23T12:33:52.300Z,35.30
2018-07-23T12:39:58.330Z,35.97
2018-07-23T12:46:04.136Z,36.94
2018-07-23T12:52:10.109Z,36.27
2018-07-23T12:58:16.150Z,36.66
2018-07-23T13:04:22.059Z,37.68
2018-07-23T13:10:28.014Z,35.07
2018-07-23T13:16:33.989Z,35.47
2018-07-23T13:22:39.924Z,36.33
2018-07-23T13:28:45.949Z,36.86
2018-07-23T13:34:51.888Z,37.12
2018-07-23T13:40:57.878Z,39.13
2018-07-23T13:47:03.964Z,40.00
2018-07-23T13:53:09.997Z,40.24
2018-07-23T13:59:16.056Z,38.98
2018-07-23T14:05:22.062Z,37.74
2018-07-23T14:11:27.850Z,35.56
2018-07-23T14:17:33.986Z,35.57
2018-07-23T14:23:39.616Z,37.07
2018-07-23T14:29:45.689Z,39.16
2018-07-23T14:35:51.661Z,40.36
2018-07-23T14:41:57.631Z,39.22
2018-07-23T14:48:03.785Z,38.55
2018-07-23T14:54:09.761Z,37.30
2018-07-23T15:00:15.722Z,38.13
2018-07-23T15:06:21.600Z,39.80
2018-07-23T15:12:27.557Z,37.25
2018-07-23T15:18:33.476Z,35.18
2018-07-23T15:24:39.438Z,36.49
2018-07-23T15:30:45.515Z,35.41
2018-07-23T15:36:51.437Z,34.74
2018-07-23T15:42:57.385Z,34.47
2018-07-23T15:49:03.334Z,35.96
2018-07-23T15:55:09.409Z,37.54
2018-07-23T16:01:15.278Z,38.32
2018-07-23T16:07:21.245Z,38.86
2018-07-23T16:13:27.151Z,38.84
2018-07-23T16:19:32.932Z,38.60
2018-07-23T16:25:39.111Z,37.87
2018-07-23T16:31:45.080Z,37.70
2018-07-23T16:37:51.011Z,37.61
2018-07-23T16:43:56.992Z,38.57
2018-07-23T16:50:02.957Z,39.19
2018-07-23T16:56:08.927Z,40.32
2018-07-23T17:02:14.883Z,40.14
2018-07-23T17:08:20.808Z,40.91
2018-07-23T17:14:26.695Z,41.12
2018-07-23T17:20:32.671Z,41.37
2018-07-23T17:26:38.676Z,41.26
2018-07-23T17:32:44.446Z,40.52
2018-07-23T17:38:50.067Z,39.92
2018-07-23T17:44:55.709Z,38.89
2018-07-23T17:51:01.546Z,38.03
2018-07-23T17:57:07.484Z,38.32
2018-07-23T18:03:13.485Z,37.19
2018-07-23T18:09:19.384Z,35.60
2018-07-23T18:15:25.303Z,35.50
2018-07-23T18:21:31.211Z,34.93
2018-07-23T18:27:37.035Z,34.20
2018-07-23T18:33:43.040Z,33.61
2018-07-23T18:39:48.862Z,33.41
2018-07-23T18:45:54.535Z,32.22
2018-07-23T18:52:00.170Z,30.91
2018-07-23T18:58:05.781Z,29.47
2018-07-23T19:04:11.825Z,28.74
2018-07-23T19:10:17.762Z,27.90
2018-07-23T19:16:23.719Z,27.48
2018-07-23T19:22:29.826Z,26.77
2018-07-23T19:28:35.750Z,26.37
2018-07-23T19:34:41.619Z,26.01
2018-07-23T19:40:47.599Z,25.56
2018-07-23T19:46:53.429Z,25.32
2018-07-23T19:52:59.359Z,24.73
2018-07-23T19:59:05.309Z,24.49
2018-07-23T20:05:11.256Z,24.14
2018-07-23T20:11:17.176Z,23.92
2018-07-23T20:17:23.107Z,23.79
2018-07-23T20:23:29.010Z,23.47
2018-07-23T20:29:34.857Z,23.33
2018-07-23T20:35:40.377Z,23.13
2018-07-23T20:41:45.985Z,23.22
2018-07-23T20:47:51.526Z,22.94
2018-07-23T20:53:57.088Z,22.74
2018-07-23T21:00:02.727Z,22.78
2018-07-23T21:06:09.172Z,22.71
2018-07-23T21:12:15.106Z,22.31
2018-07-23T21:18:20.729Z,22.30
2018-07-23T21:24:26.332Z,22.10
2018-07-23T21:30:31.953Z,22.04
2018-07-23T21:36:37.505Z,21.95
2018-07-23T21:42:43.081Z,22.16
2018-07-23T21:48:48.958Z,21.72
2018-07-23T21:54:54.626Z,21.57
2018-07-23T22:01:00.230Z,21.33
2018-07-23T22:07:05.873Z,21.18
2018-07-23T22:13:11.454Z,21.11
2018-07-23T22:19:17.069Z,21.12
2018-07-23T22:25:22.676Z,20.86
2018-07-23T22:31:28.248Z,20.69
2018-07-23T22:37:33.865Z,20.69
2018-07-23T22:43:39.446Z,20.77
2018-07-23T22:49:45.438Z,20.60
2018-07-23T22:55:51.362Z,20.49
2018-07-23T23:01:57.203Z,20.36
2018-07-23T23:08:02.967Z,20.25
2018-07-23T23:14:08.602Z,20.30
2018-07-23T23:20:14.253Z,20.21
2018-07-23T23:26:19.845Z,20.13
2018-07-23T23:32:25.444Z,19.93
2018-07-23T23:38:31.085Z,19.90
2018-07-23T23:44:36.683Z,19.84
2018-07-23T23:50:42.237Z,19.74
2018-07-23T23:56:47.783Z,19.75
